Time;durP1;ratioP1;P1;durP2;ratioP2;P2;SDS_P1;SDS_P2;PMS_P1;PMS_P2;Temp;Humidity;BMP_temperature;BMP_pressure;BME280_temperature;BME280_humidity;BME280_pressure;Samples;Min_cycle;Max_cycle;Signal;HPM_P1;HPM_P2
2022/04/18 00:02:18;;;;;;;15.83;9.67;;;9.20;57.70;;;;;;5138302;27;20050;-76
2022/04/18 00:04:44;;;;;;;13.23;8.80;;;9.20;58.00;;;;;;5137006;27;20070;-76
2022/04/18 00:07:10;;;;;;;13.50;9.00;;;9.10;57.80;;;;;;5138087;27;20272;-76
2022/04/18 00:09:36;;;;;;;13.40;9.68;;;9.10;58.20;;;;;;5138146;27;20279;-76
2022/04/18 00:12:03;;;;;;;13.60;9.25;;;9.10;58.40;;;;;;5137795;27;20054;-76
2022/04/18 00:14:29;;;;;;;14.95;9.80;;;9.10;58.30;;;;;;5136942;27;20129;-76
2022/04/18 00:16:55;;;;;;;13.50;9.77;;;9.00;58.50;;;;;;5137551;27;20131;-76
2022/04/18 00:19:21;;;;;;;15.18;9.75;;;9.00;59.00;;;;;;5137859;27;20051;-76
2022/04/18 00:21:47;;;;;;;15.57;9.63;;;9.00;59.00;;;;;;5137645;27;20043;-76
2022/04/18 00:24:14;;;;;;;14.37;9.70;;;9.00;59.10;;;;;;5137773;27;20505;-76
2022/04/18 00:26:42;;;;;;;15.27;10.23;;;9.00;59.20;;;;;;5137682;27;20119;-76
2022/04/18 00:29:07;;;;;;;14.30;9.27;;;8.90;59.20;;;;;;5137776;27;20481;-76
2022/04/18 00:31:33;;;;;;;15.03;9.83;;;8.90;59.50;;;;;;5137595;27;20039;-76
2022/04/18 00:33:59;;;;;;;15.97;9.33;;;8.90;59.70;;;;;;5137254;27;20039;-76
2022/04/18 00:36:25;;;;;;;14.17;10.13;;;8.90;59.60;;;;;;5137082;27;20059;-76
2022/04/18 00:38:51;;;;;;;15.05;9.43;;;8.80;59.80;;;;;;5136926;27;20099;-76
2022/04/18 00:41:16;;;;;;;13.90;10.33;;;8.80;59.70;;;;;;5137418;27;20043;-76
2022/04/18 00:43:47;;;;;;;18.67;10.23;;;8.70;59.90;;;;;;5137318;27;20050;-76
2022/04/18 00:46:15;;;;;;;15.15;11.00;;;8.70;60.20;;;;;;5137399;27;20449;-76
2022/04/18 00:48:41;;;;;;;15.73;9.52;;;8.70;60.40;;;;;;5137096;27;20379;-76
2022/04/18 00:51:11;;;;;;;17.00;11.00;;;8.70;60.50;;;;;;5136879;27;20054;-76
2022/04/18 00:53:38;;;;;;;17.05;10.23;;;8.70;60.70;;;;;;5137127;27;20050;-76
2022/04/18 00:56:05;;;;;;;15.80;10.10;;;;;;;;;;5136805;27;20051;-76
2022/04/18 00:58:31;;;;;;;16.88;10.75;;;8.60;60.20;;;;;;5136936;27;20094;-76
2022/04/18 01:00:57;;;;;;;15.65;10.45;;;8.60;61.00;;;;;;5136684;27;20051;-76
2022/04/18 01:03:23;;;;;;;14.70;9.20;;;8.50;60.90;;;;;;5136901;27;20047;-76
2022/04/18 01:05:49;;;;;;;15.97;10.00;;;8.50;61.00;;;;;;5136217;27;20043;-75
2022/04/18 01:08:15;;;;;;;13.75;9.93;;;8.50;61.20;;;;;;5136897;27;20043;-76
2022/04/18 01:10:42;;;;;;;17.48;9.65;;;8.50;61.30;;;;;;5136809;27;20406;-76
2022/04/18 01:13:07;;;;;;;16.15;10.05;;;8.50;61.70;;;;;;5136610;27;20097;-76
2022/04/18 01:15:33;;;;;;;15.30;10.13;;;8.40;61.70;;;;;;5136768;27;20047;-76
2022/04/18 01:17:59;;;;;;;16.50;10.37;;;8.50;62.20;;;;;;5136388;27;20433;-76
2022/04/18 01:20:34;;;;;;;14.27;10.00;;;8.40;61.80;;;;;;5136591;27;20046;-76
2022/04/18 01:23:00;;;;;;;;;;;8.40;62.00;;;;;;5136928;27;20087;-76
2022/04/18 01:30:55;;;;;;;15.10;10.57;;;8.30;62.70;;;;;;5135917;27;20547;-76
2022/04/18 01:33:21;;;;;;;13.93;10.43;;;8.30;62.50;;;;;;5136902;27;20039;-76
2022/04/18 01:35:47;;;;;;;15.75;10.15;;;8.20;63.20;;;;;;5135158;27;20103;-76
2022/04/18 01:38:13;;;;;;;18.63;11.53;;;8.20;63.10;;;;;;5135730;27;20134;-76
2022/04/18 01:40:39;;;;;;;17.10;11.20;;;8.20;63.20;;;;;;5136318;27;20047;-76
2022/04/18 01:43:06;;;;;;;17.83;11.07;;;8.20;64.00;;;;;;5135897;27;20398;-76
2022/04/18 01:45:32;;;;;;;15.93;10.27;;;8.10;63.40;;;;;;5135868;27;20129;-76
2022/04/18 01:47:57;;;;;;;15.70;10.57;;;8.10;63.90;;;;;;5135873;27;20051;-76
2022/04/18 01:50:23;;;;;;;16.13;10.90;;;8.10;64.10;;;;;;5169517;27;20055;-76
2022/04/18 01:52:49;;;;;;;18.73;10.27;;;8.10;64.50;;;;;;5136074;27;20055;-76
2022/04/18 01:55:14;;;;;;;16.10;10.80;;;8.00;64.40;;;;;;5135706;27;20405;-76
2022/04/18 01:57:40;;;;;;;15.83;10.80;;;7.90;64.80;;;;;;5135917;27;20043;-76
2022/04/18 02:00:06;;;;;;;15.77;10.37;;;7.90;65.00;;;;;;5135637;27;20047;-76
2022/04/18 02:02:32;;;;;;;14.85;10.40;;;7.90;65.00;;;;;;5134562;27;20043;-76
2022/04/18 02:04:59;;;;;;;16.20;11.37;;;7.90;65.80;;;;;;5135561;27;20049;-76
2022/04/18 02:07:24;;;;;;;15.55;10.35;;;7.90;65.80;;;;;;5135514;27;20088;-76
2022/04/18 02:09:50;;;;;;;15.20;9.93;;;7.80;66.30;;;;;;5134412;27;20047;-76
2022/04/18 02:12:16;;;;;;;15.90;10.80;;;7.70;66.40;;;;;;5135348;27;20054;-76
2022/04/18 02:14:42;;;;;;;20.83;10.55;;;7.70;66.60;;;;;;5135727;27;20043;-76
2022/04/18 02:17:08;;;;;;;16.50;10.63;;;7.70;67.10;;;;;;5134157;27;20140;-76
2022/04/18 02:19:33;;;;;;;16.57;9.97;;;7.70;67.10;;;;;;5134157;27;20372;-76
2022/04/18 02:21:59;;;;;;;17.03;10.50;;;7.70;67.20;;;;;;5134346;27;20035;-76
2022/04/18 02:24:24;;;;;;;16.87;11.70;;;7.60;67.40;;;;;;5135769;27;20046;-76
2022/04/18 02:26:50;;;;;;;15.80;10.77;;;7.60;67.70;;;;;;5169264;27;20554;-76
2022/04/18 02:29:16;;;;;;;15.97;10.63;;;7.70;68.00;;;;;;5135036;27;20055;-76
2022/04/18 02:34:26;;;;;;;14.23;9.82;;;7.60;68.00;;;;;;5135301;27;20082;-76
2022/04/18 02:36:51;;;;;;;18.57;10.53;;;7.60;68.40;;;;;;5134808;27;20458;-76
2022/04/18 02:39:18;;;;;;;15.97;10.83;;;;;;;;;;5134863;27;20159;-76
2022/04/18 02:41:43;;;;;;;15.63;9.93;;;7.50;68.10;;;;;;5134927;27;20043;-76
2022/04/18 02:44:09;;;;;;;15.73;9.77;;;7.50;69.40;;;;;;5134666;27;20043;-76
2022/04/18 02:46:34;;;;;;;15.67;9.73;;;7.50;69.20;;;;;;5135168;27;20043;-76
2022/04/18 02:49:00;;;;;;;15.37;10.37;;;7.40;69.20;;;;;;5134629;27;20128;-76
2022/04/18 02:51:27;;;;;;;14.93;10.40;;;7.40;69.60;;;;;;5134776;27;20082;-76
2022/04/18 02:53:56;;;;;;;19.02;10.90;;;7.40;69.80;;;;;;5133850;27;20550;-76
2022/04/18 02:56:22;;;;;;;14.75;10.35;;;7.40;70.30;;;;;;5134715;27;20465;-76
2022/04/18 02:58:48;;;;;;;16.60;11.13;;;7.40;70.40;;;;;;5134775;27;20091;-76
2022/04/18 03:01:14;;;;;;;16.90;10.33;;;7.40;70.40;;;;;;5134457;27;20050;-76
2022/04/18 03:03:40;;;;;;;15.07;10.07;;;7.30;70.50;;;;;;5134633;27;20436;-76
2022/04/18 03:06:05;;;;;;;18.50;10.97;;;7.30;70.50;;;;;;5134340;27;20534;-76
2022/04/18 03:08:34;;;;;;;15.23;11.00;;;7.30;70.90;;;;;;5134812;27;20047;-76
2022/04/18 03:11:03;;;;;;;15.65;10.73;;;7.20;71.00;;;;;;5134377;27;20104;-76
2022/04/18 03:13:29;;;;;;;16.15;11.13;;;7.20;70.80;;;;;;5134388;27;20550;-76
2022/04/18 03:15:55;;;;;;;15.68;11.23;;;7.20;71.10;;;;;;5134375;27;20058;-76
2022/04/18 03:18:21;;;;;;;15.13;10.48;;;7.20;71.50;;;;;;5133902;27;20486;-76
2022/04/18 03:20:47;;;;;;;14.70;10.43;;;7.20;71.90;;;;;;5134404;27;20054;-76
2022/04/18 03:23:12;;;;;;;15.67;10.53;;;7.20;71.60;;;;;;5133806;27;20043;-76
2022/04/18 03:25:38;;;;;;;14.37;10.40;;;7.10;71.60;;;;;;5134292;27;20046;-76
2022/04/18 03:28:04;;;;;;;17.23;11.70;;;7.10;72.50;;;;;;5167451;27;20062;-76
2022/04/18 03:30:30;;;;;;;17.83;11.07;;;7.10;72.20;;;;;;5134609;27;20538;-76
2022/04/18 03:32:55;;;;;;;16.33;10.70;;;7.10;72.30;;;;;;5134216;27;20086;-76
2022/04/18 03:35:21;;;;;;;15.73;10.20;;;7.10;72.80;;;;;;5133829;27;20138;-76
2022/04/18 03:40:31;;;;;;;14.15;10.25;;;7.00;72.90;;;;;;5133394;27;20051;-76
2022/04/18 03:42:57;;;;;;;14.00;10.37;;;7.00;72.90;;;;;;5133854;27;20058;-76
2022/04/18 03:45:22;;;;;;;15.63;10.80;;;7.00;73.30;;;;;;5133888;28;20054;-76
2022/04/18 03:47:48;;;;;;;17.03;10.83;;;7.00;73.40;;;;;;5134144;28;20360;-76
2022/04/18 03:50:14;;;;;;;17.20;11.27;;;7.00;74.10;;;;;;5133832;28;20047;-76
2022/04/18 03:52:40;;;;;;;15.63;11.20;;;7.00;73.50;;;;;;5134041;27;20054;-76
2022/04/18 03:55:06;;;;;;;16.20;11.20;;;6.90;73.60;;;;;;5133779;28;20090;-76
2022/04/18 03:57:32;;;;;;;15.00;10.90;;;6.90;74.10;;;;;;5134084;27;20039;-76
2022/04/18 03:59:57;;;;;;;19.07;12.07;;;6.90;74.10;;;;;;5134171;28;20050;-76
2022/04/18 04:02:23;;;;;;;16.83;10.93;;;6.90;74.00;;;;;;5133754;27;20216;-76
2022/04/18 04:04:49;;;;;;;16.90;11.00;;;6.90;74.30;;;;;;5134321;28;20058;-76
2022/04/18 04:07:14;;;;;;;15.57;10.63;;;6.80;74.60;;;;;;5134042;28;20463;-76
2022/04/18 04:09:40;;;;;;;17.57;11.03;;;6.80;74.60;;;;;;5133843;28;20051;-76
2022/04/18 04:12:06;;;;;;;15.90;11.50;;;6.90;75.50;;;;;;5132617;28;20040;-76
2022/04/18 04:14:33;;;;;;;16.42;11.32;;;6.80;74.90;;;;;;5132612;28;20039;-76
2022/04/18 04:16:59;;;;;;;15.60;10.82;;;6.80;74.90;;;;;;5132657;28;20050;-76
2022/04/18 04:19:25;;;;;;;16.92;11.10;;;6.80;75.10;;;;;;5132500;28;20043;-76
2022/04/18 04:21:50;;;;;;;16.23;11.27;;;6.80;75.40;;;;;;5133395;28;20494;-76
2022/04/18 04:24:16;;;;;;;18.20;11.77;;;6.70;75.50;;;;;;5133462;28;20043;-76
2022/04/18 04:26:44;;;;;;;19.90;11.67;;;6.70;75.80;;;;;;5134169;28;20043;-76
2022/04/18 04:29:09;;;;;;;16.00;10.95;;;6.70;76.30;;;;;;5133411;27;20099;-76
2022/04/18 04:31:35;;;;;;;18.47;11.83;;;6.70;76.50;;;;;;5132710;28;20051;-76
2022/04/18 04:34:01;;;;;;;18.43;11.83;;;6.70;76.80;;;;;;5133671;27;20395;-75
2022/04/18 04:36:26;;;;;;;17.33;11.90;;;6.60;77.10;;;;;;5132900;28;20170;-76
2022/04/18 04:38:52;;;;;;;17.13;10.87;;;6.60;77.40;;;;;;5133740;27;20040;-76
2022/04/18 04:41:18;;;;;;;20.60;12.37;;;6.70;76.90;;;;;;5170767;27;20440;-75
2022/04/18 04:43:43;;;;;;;17.20;12.20;;;6.60;77.40;;;;;;5137271;27;20134;-76
2022/04/18 04:46:09;;;;;;;15.57;11.03;;;6.60;78.00;;;;;;5137132;27;20126;-75
2022/04/18 04:48:35;;;;;;;18.00;11.53;;;6.60;77.50;;;;;;5137386;27;20407;-76
2022/04/18 04:51:01;;;;;;;18.03;11.20;;;6.60;77.90;;;;;;5137279;27;20087;-76
2022/04/18 04:53:26;;;;;;;17.57;11.70;;;6.60;78.30;;;;;;5170678;27;20155;-75
2022/04/18 04:55:52;;;;;;;20.47;11.13;;;6.60;78.20;;;;;;5137120;27;20057;-76
2022/04/18 04:58:18;;;;;;;17.77;11.33;;;6.60;78.60;;;;;;5136815;27;20035;-75
2022/04/18 05:00:43;;;;;;;16.53;12.33;;;6.60;79.00;;;;;;5170709;27;20054;-76
2022/04/18 05:03:09;;;;;;;17.00;11.63;;;6.60;78.70;;;;;;5135939;27;20062;-76
2022/04/18 05:05:35;;;;;;;18.25;11.32;;;6.60;78.80;;;;;;5136958;27;20039;-76
2022/04/18 05:08:01;;;;;;;14.83;11.00;;;6.60;78.80;;;;;;5136884;27;20042;-76
2022/04/18 05:10:27;;;;;;;16.42;12.02;;;6.60;79.30;;;;;;5136657;27;20050;-76
2022/04/18 05:12:53;;;;;;;17.33;11.77;;;6.60;78.90;;;;;;5137060;27;20097;-76
2022/04/18 05:15:19;;;;;;;18.57;11.90;;;6.60;79.10;;;;;;5136525;27;20046;-76
2022/04/18 05:17:45;;;;;;;17.85;12.32;;;6.70;79.00;;;;;;5135604;27;20129;-76
2022/04/18 05:20:11;;;;;;;18.07;11.87;;;6.70;79.50;;;;;;5136713;27;20086;-76
2022/04/18 05:22:37;;;;;;;19.63;12.15;;;6.70;79.30;;;;;;5135568;27;20080;-76
2022/04/18 05:25:03;;;;;;;18.83;11.43;;;6.70;78.80;;;;;;5136575;27;20046;-76
2022/04/18 05:27:29;;;;;;;17.67;11.25;;;6.80;78.80;;;;;;5136383;27;20505;-76
2022/04/18 05:29:55;;;;;;;18.35;11.50;;;6.80;79.00;;;;;;5136506;27;20390;-76
2022/04/18 05:32:20;;;;;;;20.80;12.93;;;6.80;78.70;;;;;;5136250;27;20134;-76
2022/04/18 05:34:46;;;;;;;18.07;12.10;;;6.90;78.60;;;;;;5136350;27;20077;-76
2022/04/18 05:37:12;;;;;;;18.33;11.90;;;7.00;78.40;;;;;;5135902;27;20094;-76
2022/04/18 05:39:38;;;;;;;16.17;11.03;;;7.10;78.10;;;;;;5136088;27;20122;-76
2022/04/18 05:42:06;;;;;;;17.17;11.20;;;7.10;77.40;;;;;;5135301;27;20035;-76
2022/04/18 05:44:33;;;;;;;16.48;11.13;;;7.10;76.60;;;;;;5136039;27;20372;-75
2022/04/18 05:46:59;;;;;;;18.13;12.27;;;7.20;76.20;;;;;;5136089;27;20039;-75
2022/04/18 05:49:25;;;;;;;16.58;11.68;;;7.30;75.20;;;;;;5135957;27;20047;-75
2022/04/18 05:51:50;;;;;;;16.60;12.07;;;7.30;75.10;;;;;;5169715;27;20475;-77
2022/04/18 05:54:16;;;;;;;16.10;11.30;;;7.40;75.00;;;;;;5136163;27;20061;-75
2022/04/18 05:56:42;;;;;;;16.97;12.00;;;7.50;74.20;;;;;;5136022;27;20051;-75
2022/04/18 05:59:07;;;;;;;16.07;10.90;;;7.60;73.70;;;;;;5135894;27;20039;-75
2022/04/18 06:01:35;;;;;;;16.13;10.77;;;8.30;69.80;;;;;;5135715;27;20047;-75
2022/04/18 06:04:01;;;;;;;17.75;11.93;;;8.60;70.60;;;;;;5134876;27;20382;-76
2022/04/18 06:06:27;;;;;;;17.25;11.45;;;10.10;68.60;;;;;;5135210;27;20403;-75
2022/04/18 06:08:53;;;;;;;17.30;12.10;;;11.70;68.10;;;;;;5134743;27;20051;-76
2022/04/18 06:11:19;;;;;;;18.80;12.20;;;;;;;;;;5135468;27;20051;-75
2022/04/18 06:13:45;;;;;;;18.23;11.30;;;13.90;54.40;;;;;;5134650;27;20051;-76
2022/04/18 06:16:11;;;;;;;14.77;10.87;;;14.70;52.90;;;;;;5135556;27;20273;-76
2022/04/18 06:18:36;;;;;;;16.33;10.73;;;15.40;50.90;;;;;;5135292;27;20614;-76
2022/04/18 06:21:03;;;;;;;14.93;10.67;;;16.00;49.00;;;;;;5134284;27;20100;-76
2022/04/18 06:23:29;;;;;;;15.37;11.43;;;16.70;47.10;;;;;;5134167;27;20528;-76
2022/04/18 06:25:55;;;;;;;13.93;10.70;;;17.20;45.80;;;;;;5135082;27;20277;-76
2022/04/18 06:28:21;;;;;;;15.87;11.00;;;17.80;44.00;;;;;;5135141;27;20183;-76
2022/04/18 06:30:46;;;;;;;15.10;10.57;;;18.60;43.10;;;;;;5134454;27;20080;-76
2022/04/18 06:33:13;;;;;;;15.40;10.73;;;19.40;41.90;;;;;;5135282;27;20043;-76
2022/04/18 06:35:40;;;;;;;17.47;11.57;;;;;;;;;;5134992;27;20467;-76
2022/04/18 06:38:06;;;;;;;17.23;11.20;;;20.20;69.20;;;;;;5135189;27;20300;-76
2022/04/18 06:40:32;;;;;;;13.40;10.37;;;20.50;38.40;;;;;;5134969;27;20346;-76
2022/04/18 06:42:57;;;;;;;14.27;10.30;;;20.60;37.60;;;;;;5150972;27;20043;-76
2022/04/18 06:45:24;;;;;;;13.90;10.40;;;21.00;37.00;;;;;;5168492;27;20051;-76
2022/04/18 06:47:50;;;;;;;14.43;10.73;;;21.10;36.50;;;;;;5133766;27;20079;-76
2022/04/18 06:50:16;;;;;;;13.60;9.63;;;21.30;34.90;;;;;;5134924;27;20100;-76
2022/04/18 06:52:49;;;;;;;15.80;10.83;;;21.60;34.70;;;;;;5134637;27;20053;-76
2022/04/18 06:55:16;;;;;;;14.93;10.47;;;22.20;33.50;;;;;;5133955;27;20051;-76
2022/04/18 06:57:42;;;;;;;13.87;10.77;;;22.00;33.40;;;;;;5134478;27;20463;-76
2022/04/18 07:00:08;;;;;;;15.27;11.77;;;22.50;33.20;;;;;;5134747;27;20130;-76
2022/04/18 07:02:34;;;;;;;12.40;9.77;;;22.50;32.80;;;;;;5132921;27;20470;-76
2022/04/18 07:05:00;;;;;;;13.83;10.37;;;23.00;32.80;;;;;;5134659;27;20050;-76
2022/04/18 07:07:26;;;;;;;13.53;9.90;;;23.20;32.40;;;;;;5134491;27;20382;-76
2022/04/18 07:09:52;;;;;;;14.23;10.00;;;23.50;32.30;;;;;;5134970;27;20050;-76
2022/04/18 07:12:22;;;;;;;14.20;9.80;;;23.60;31.70;;;;;;5134680;27;20374;-76
2022/04/18 07:14:48;;;;;;;13.67;10.63;;;23.90;30.90;;;;;;5134433;27;20054;-76
2022/04/18 07:17:14;;;;;;;13.07;9.90;;;24.30;30.90;;;;;;5134442;27;20081;-76
2022/04/18 07:19:39;;;;;;;12.83;9.80;;;24.40;30.40;;;;;;5133191;27;20070;-76
2022/04/18 07:22:07;;;;;;;12.53;9.90;;;24.40;30.00;;;;;;5133496;27;20065;-76
2022/04/18 07:24:33;;;;;;;11.87;9.33;;;24.60;30.10;;;;;;5134357;27;20057;-76
2022/04/18 07:27:01;;;;;;;12.87;9.23;;;24.80;29.70;;;;;;5133648;27;20042;-76
2022/04/18 07:29:28;;;;;;;15.27;9.77;;;;;;;;;;5132963;27;20068;-75
2022/04/18 07:31:54;;;;;;;11.77;8.90;;;25.10;64.80;;;;;;5134309;27;20047;-76
2022/04/18 07:34:20;;;;;;;11.33;8.47;;;25.30;29.20;;;;;;5133291;27;20066;-76
2022/04/18 07:36:46;;;;;;;12.17;9.50;;;;;;;;;;5133775;27;20058;-75
2022/04/18 07:39:12;;;;;;;11.50;9.03;;;25.10;54.30;;;;;;5134270;27;20054;-76
2022/04/18 07:41:38;;;;;;;12.23;8.20;;;25.30;29.10;;;;;;5134019;27;20042;-75
2022/04/18 07:44:03;;;;;;;11.60;8.37;;;25.40;29.30;;;;;;5134477;28;20180;-76
2022/04/18 07:46:30;;;;;;;12.60;8.07;;;;;;;;;;5134138;27;20043;-75
2022/04/18 07:48:56;;;;;;;11.30;7.63;;;26.40;28.30;;;;;;5134091;28;20043;-76
2022/04/18 07:51:31;;;;;;;10.70;7.30;;;26.40;28.50;;;;;;5134057;27;20047;-76
2022/04/18 07:53:58;;;;;;;9.10;7.57;;;25.90;28.40;;;;;;5134113;27;20475;-76
2022/04/18 07:56:24;;;;;;;9.43;7.57;;;;;;;;;;5134113;27;20160;-76
2022/04/18 07:58:50;;;;;;;9.83;7.70;;;;;;;;;;5133727;28;20494;-75
2022/04/18 08:01:17;;;;;;;10.67;7.67;;;22.50;29.20;;;;;;5134065;28;20157;-76
2022/04/18 08:03:43;;;;;;;9.43;7.10;;;;;;;;;;5133643;27;20044;-75
2022/04/18 08:06:09;;;;;;;10.77;7.53;;;20.80;31.80;;;;;;5132669;28;20039;-76
2022/04/18 08:08:35;;;;;;;11.10;7.97;;;20.50;32.40;;;;;;5133664;27;20099;-75
2022/04/18 08:11:01;;;;;;;10.30;7.93;;;20.20;32.30;;;;;;5133524;28;20051;-75
2022/04/18 08:13:27;;;;;;;9.63;7.30;;;;;;;;;;5133661;27;20043;-76
2022/04/18 08:15:54;;;;;;;10.53;7.17;;;19.80;32.50;;;;;;5137693;27;20483;-75
2022/04/18 08:18:20;;;;;;;10.27;7.33;;;19.50;33.30;;;;;;5137852;27;20066;-76
2022/04/18 08:20:46;;;;;;;10.40;7.83;;;19.30;33.70;;;;;;5137616;27;20050;-76
2022/04/18 08:23:12;;;;;;;10.27;7.47;;;19.10;34.00;;;;;;5137875;27;20047;-75
2022/04/18 08:25:37;;;;;;;10.33;7.90;;;19.00;35.00;;;;;;5137637;27;20043;-75
2022/04/18 08:28:03;;;;;;;9.53;7.13;;;18.90;34.70;;;;;;5137804;27;20491;-76
2022/04/18 08:30:29;;;;;;;10.50;7.17;;;18.80;35.30;;;;;;5137985;27;20047;-76
2022/04/18 08:32:55;;;;;;;10.83;6.67;;;18.80;35.50;;;;;;5137542;27;20043;-76
2022/04/18 08:35:21;;;;;;;12.60;8.17;;;18.50;35.60;;;;;;5137535;27;20437;-76
2022/04/18 08:37:48;;;;;;;10.33;6.90;;;18.30;35.60;;;;;;5135903;27;20506;-75
2022/04/18 08:40:14;;;;;;;14.03;7.27;;;18.10;36.20;;;;;;5137476;27;20054;-75
2022/04/18 08:42:41;;;;;;;10.97;7.30;;;18.10;36.90;;;;;;5137175;27;20475;-75
2022/04/18 08:45:08;;;;;;;10.50;7.37;;;;;;;;;;5137343;27;20040;-75
2022/04/18 08:53:09;;;;;;;9.43;6.87;;;17.80;37.60;;;;;;5137498;27;20062;-75
2022/04/18 08:55:36;;;;;;;12.93;7.10;;;17.80;37.60;;;;;;5137055;27;20138;-75
2022/04/18 08:58:01;;;;;;;8.87;6.43;;;17.70;37.70;;;;;;5137442;27;20476;-75
2022/04/18 09:00:27;;;;;;;9.80;6.73;;;17.60;38.30;;;;;;5136802;27;20056;-76
2022/04/18 09:02:54;;;;;;;11.37;7.00;;;17.60;38.60;;;;;;5136852;27;20340;-75
2022/04/18 09:05:19;;;;;;;12.10;7.27;;;17.50;38.80;;;;;;5137209;27;20043;-75
2022/04/18 09:07:57;;;;;;;9.73;6.90;;;17.40;38.80;;;;;;5135890;27;20057;-75
2022/04/18 09:10:23;;;;;;;10.47;6.70;;;17.30;39.00;;;;;;5137061;27;20051;-75
2022/04/18 09:12:50;;;;;;;9.73;6.43;;;17.10;39.40;;;;;;5136677;27;20043;-75
2022/04/18 09:15:42;;;;;;;11.57;6.60;;;17.10;39.60;;;;;;5135717;27;20101;-75
2022/04/18 09:18:13;;;;;;;11.20;6.57;;;17.10;40.10;;;;;;5136807;27;20455;-76
2022/04/18 09:20:45;;;;;;;9.23;6.37;;;17.10;39.80;;;;;;5136433;27;20046;-75
2022/04/18 09:23:22;;;;;;;8.83;6.07;;;17.00;39.60;;;;;;5137052;27;20051;-75
2022/04/18 09:25:53;;;;;;;11.47;5.63;;;17.00;39.80;;;;;;5135475;27;20039;-75
2022/04/18 09:28:24;;;;;;;8.33;5.57;;;16.90;39.70;;;;;;5136508;27;20042;-75
2022/04/18 09:31:11;;;;;;;10.00;5.87;;;17.00;39.60;;;;;;5136309;27;20042;-75
2022/04/18 09:33:54;;;;;;;10.17;6.30;;;17.00;40.20;;;;;;5135905;27;20039;-74
2022/04/18 09:36:22;;;;;;;9.43;6.23;;;17.00;40.50;;;;;;5136217;27;20051;-75
2022/04/18 09:38:50;;;;;;;9.47;5.80;;;17.00;40.20;;;;;;5134555;27;20062;-75
2022/04/18 09:41:30;;;;;;;8.60;5.13;;;17.00;40.20;;;;;;5136270;27;20051;-75
2022/04/18 09:43:56;;;;;;;10.17;5.67;;;17.00;40.00;;;;;;5136188;27;20043;-75
2022/04/18 09:46:23;;;;;;;10.67;5.63;;;17.10;39.90;;;;;;5136216;27;20043;-75
2022/04/18 09:48:50;;;;;;;8.40;5.50;;;17.10;39.60;;;;;;5134826;27;20130;-76
2022/04/18 09:51:25;;;;;;;7.50;5.00;;;17.10;39.20;;;;;;5136162;27;20051;-75
2022/04/18 09:53:53;;;;;;;10.75;5.97;;;17.20;39.60;;;;;;5135941;27;20129;-75
2022/04/18 09:56:22;;;;;;;7.30;4.60;;;17.20;39.60;;;;;;5136027;27;20502;-75
2022/04/18 09:58:48;;;;;;;7.63;4.80;;;17.20;39.60;;;;;;5135752;27;20103;-74
2022/04/18 10:01:14;;;;;;;9.97;5.40;;;17.30;41.50;;;;;;5136241;27;20050;-75
2022/04/18 10:03:41;;;;;;;7.83;4.97;;;17.30;40.20;;;;;;5135666;27;20042;-74
2022/04/18 10:06:08;;;;;;;9.10;5.33;;;17.30;40.20;;;;;;5136108;27;20043;-75
2022/04/18 10:08:35;;;;;;;7.23;4.70;;;17.40;40.10;;;;;;5135816;27;20047;-75
2022/04/18 10:11:02;;;;;;;7.57;4.20;;;17.40;39.60;;;;;;5135457;27;20047;-75
2022/04/18 10:13:29;;;;;;;7.93;4.83;;;17.40;39.40;;;;;;5135452;27;20490;-75
2022/04/18 10:15:58;;;;;;;8.03;4.67;;;17.40;39.40;;;;;;5135381;27;20039;-75
2022/04/18 10:18:24;;;;;;;7.83;5.20;;;17.40;39.30;;;;;;5135945;27;20051;-75
2022/04/18 10:21:07;;;;;;;7.67;4.63;;;17.40;39.40;;;;;;5133423;27;20059;-75
2022/04/18 10:23:48;;;;;;;8.80;5.20;;;17.40;38.90;;;;;;5133426;27;20043;-75
2022/04/18 10:26:47;;;;;;;9.87;4.50;;;17.40;39.70;;;;;;5133179;27;20104;-75
2022/04/18 10:29:27;;;;;;;8.13;4.77;;;17.40;39.40;;;;;;5133118;27;20483;-75
2022/04/18 10:31:54;;;;;;;7.13;4.50;;;17.30;38.90;;;;;;5135163;27;20273;-74
2022/04/18 10:34:24;;;;;;;7.53;4.50;;;17.40;39.40;;;;;;5135553;27;20147;-74
2022/04/18 10:36:54;;;;;;;10.43;4.80;;;17.40;39.90;;;;;;5133815;27;20043;-74
2022/04/18 10:39:21;;;;;;;9.33;4.20;;;17.40;39.30;;;;;;5135753;27;20285;-74
2022/04/18 10:41:48;;;;;;;6.03;4.00;;;17.40;39.10;;;;;;5134941;27;20452;-74
2022/04/18 10:44:15;;;;;;;7.90;4.20;;;17.50;38.80;;;;;;5135277;27;20054;-74
2022/04/18 10:46:55;;;;;;;7.83;3.63;;;17.50;38.50;;;;;;5135115;27;20051;-74
2022/04/18 10:49:23;;;;;;;6.80;4.03;;;17.50;38.60;;;;;;5135318;27;20359;-74
2022/04/18 10:51:51;;;;;;;7.53;4.17;;;17.50;38.90;;;;;;5134624;27;20475;-74
2022/04/18 10:54:25;;;;;;;6.83;4.07;;;17.50;38.80;;;;;;5134778;27;20551;-74
2022/04/18 10:57:02;;;;;;;6.87;3.43;;;17.50;38.40;;;;;;5133595;27;20062;-74
2022/04/18 10:59:33;;;;;;;7.30;3.13;;;17.50;38.10;;;;;;5134655;27;20506;-74
2022/04/18 11:02:01;;;;;;;6.43;3.60;;;17.60;38.20;;;;;;5134619;27;20046;-74
2022/04/18 11:04:29;;;;;;;5.03;3.00;;;17.50;38.10;;;;;;5133524;27;20043;-74
2022/04/18 11:07:03;;;;;;;5.60;3.03;;;17.50;37.70;;;;;;5134411;27;20031;-74
2022/04/18 11:09:32;;;;;;;5.47;2.80;;;17.40;37.20;;;;;;5134917;27;20050;-75
2022/04/18 11:12:05;;;;;;;5.50;3.10;;;17.50;36.60;;;;;;5134378;27;20051;-74
2022/04/18 11:14:51;;;;;;;6.20;3.10;;;17.50;36.20;;;;;;5134555;27;20088;-74
2022/04/18 11:17:33;;;;;;;5.87;2.87;;;17.60;36.40;;;;;;5134371;27;20043;-74
2022/04/18 11:20:31;;;;;;;4.83;2.30;;;17.60;36.30;;;;;;5134322;27;20109;-74
2022/04/18 11:23:18;;;;;;;5.93;2.73;;;17.70;34.30;;;;;;5134091;27;20363;-74
2022/04/18 11:25:58;;;;;;;5.97;2.80;;;17.80;35.40;;;;;;5134275;27;20338;-74
2022/04/18 11:28:32;;;;;;;4.40;2.13;;;17.90;35.00;;;;;;5134531;27;20382;-74
2022/04/18 11:30:58;;;;;;;5.97;2.70;;;17.80;34.20;;;;;;5134118;27;20269;-74
2022/04/18 11:33:24;;;;;;;6.77;2.73;;;17.90;33.70;;;;;;5134266;27;20337;-74
2022/04/18 11:35:50;;;;;;;5.80;2.60;;;17.90;33.80;;;;;;5133985;27;20272;-73
2022/04/18 11:38:16;;;;;;;5.57;3.20;;;17.80;34.20;;;;;;5134240;27;20058;-74
2022/04/18 11:40:44;;;;;;;5.17;2.70;;;17.80;34.60;;;;;;5134086;27;20628;-74
2022/04/18 11:43:14;;;;;;;5.63;2.90;;;17.70;35.20;;;;;;5133585;27;20686;-74
2022/04/18 11:45:39;;;;;;;6.47;2.90;;;17.80;34.30;;;;;;5134054;27;20047;-74
2022/04/18 11:48:06;;;;;;;5.00;2.53;;;17.80;34.40;;;;;;5133815;27;20302;-73
2022/04/18 11:50:36;;;;;;;6.80;3.30;;;17.80;34.90;;;;;;5134230;27;20047;-74
2022/04/18 11:53:07;;;;;;;5.10;2.87;;;17.90;34.30;;;;;;5133714;27;20272;-73
2022/04/18 11:55:44;;;;;;;5.60;3.20;;;17.90;35.20;;;;;;5133806;27;20748;-74
2022/04/18 11:58:10;;;;;;;6.30;3.40;;;17.90;35.10;;;;;;5133676;27;20288;-74
2022/04/18 12:08:50;;;;;;;5.30;3.00;;;17.70;35.30;;;;;;5133631;28;20572;-74
2022/04/18 12:11:16;;;;;;;4.60;2.80;;;17.80;35.30;;;;;;5133933;27;20119;-74
2022/04/18 12:13:45;;;;;;;5.13;2.80;;;17.90;35.10;;;;;;5133888;27;20039;-74
2022/04/18 12:16:12;;;;;;;5.53;2.80;;;18.00;35.00;;;;;;5133518;27;20276;-74
2022/04/18 12:18:38;;;;;;;5.17;2.50;;;18.00;35.00;;;;;;5133753;27;20039;-74
2022/04/18 12:21:04;;;;;;;4.47;2.43;;;18.10;34.80;;;;;;5132573;28;20372;-74
2022/04/18 12:23:30;;;;;;;6.40;2.80;;;18.00;34.50;;;;;;5133404;28;20092;-74
2022/04/18 12:26:01;;;;;;;6.70;3.00;;;18.00;34.90;;;;;;5133559;27;20041;-74
2022/04/18 12:28:29;;;;;;;4.80;2.43;;;18.00;35.00;;;;;;5133690;27;20043;-74
2022/04/18 12:30:56;;;;;;;5.17;2.47;;;18.00;34.70;;;;;;5133505;27;20051;-74
2022/04/18 12:33:22;;;;;;;6.13;2.47;;;18.00;34.60;;;;;;5115564;28;20288;-74
2022/04/18 12:35:51;;;;;;;6.03;2.93;;;18.00;34.80;;;;;;5133606;27;20050;-75
2022/04/18 12:38:20;;;;;;;5.53;2.97;;;18.00;35.30;;;;;;5132713;27;20811;-74
2022/04/18 12:40:53;;;;;;;5.53;2.40;;;18.00;35.40;;;;;;5133556;27;20798;-74
2022/04/18 12:43:19;;;;;;;4.73;2.63;;;18.00;34.20;;;;;;5133403;27;20857;-74
2022/04/18 12:45:46;;;;;;;5.33;2.33;;;18.10;34.00;;;;;;5132478;28;20310;-74
2022/04/18 12:48:12;;;;;;;5.97;2.60;;;18.10;34.60;;;;;;5133329;27;20100;-75
2022/04/18 12:50:38;;;;;;;4.80;2.07;;;18.10;34.70;;;;;;5133651;27;20817;-74
2022/04/18 12:53:04;;;;;;;5.80;2.50;;;18.10;35.20;;;;;;5098257;28;20285;-74
2022/04/18 12:55:31;;;;;;;4.90;2.73;;;18.00;35.20;;;;;;5133421;27;20330;-74
2022/04/18 12:58:00;;;;;;;4.77;2.60;;;18.00;35.40;;;;;;5133086;27;20043;-74
2022/04/18 13:00:37;;;;;;;5.07;3.00;;;18.00;35.00;;;;;;5134192;27;20273;-74
2022/04/18 13:03:04;;;;;;;5.33;2.87;;;17.90;34.90;;;;;;5136773;27;20283;-74
2022/04/18 13:05:33;;;;;;;5.13;2.77;;;17.90;35.00;;;;;;5135752;27;20285;-74
2022/04/18 13:08:03;;;;;;;5.40;2.63;;;17.80;35.30;;;;;;5136704;27;20310;-74
2022/04/18 13:10:31;;;;;;;5.17;2.60;;;17.80;35.60;;;;;;5136908;27;20358;-74